Time;durP1;ratioP1;P1;durP2;ratioP2;P2;SDS_P1;SDS_P2;PMS_P1;PMS_P2;Temp;Humidity;BMP_temperature;BMP_pressure;BME280_temperature;BME280_humidity;BME280_pressure;Samples;Min_cycle;Max_cycle;Signal;HPM_P1;HPM_P2
2021/01/28 00:00:08;;;;;;;6.03;4.10;;;;;;;6.76;52.28;98883.59;1804642;79;21142;-77
2021/01/28 00:02:36;;;;;;;4.25;3.62;;;;;;;6.73;52.28;98882.63;1804065;79;21157;-76
2021/01/28 00:05:07;;;;;;;5.22;3.92;;;;;;;6.70;52.37;98881.13;1804706;79;21520;-80
2021/01/28 00:07:35;;;;;;;4.30;3.33;;;;;;;6.70;52.36;98878.47;1804614;79;21149;-79
2021/01/28 00:10:06;;;;;;;4.90;3.98;;;;;;;6.70;52.43;98872.31;1804735;79;21938;-76
2021/01/28 00:12:34;;;;;;;5.20;4.15;;;;;;;6.72;52.41;98871.63;1804638;79;21110;-77
2021/01/28 00:15:03;;;;;;;5.35;4.15;;;;;;;6.72;52.42;98884.94;1804659;79;21118;-77
2021/01/28 00:17:32;;;;;;;5.42;4.65;;;;;;;6.72;52.35;98880.47;1804428;79;21158;-78
2021/01/28 00:20:00;;;;;;;5.35;4.50;;;;;;;6.73;52.37;98882.13;1804664;79;21385;-76
2021/01/28 00:22:27;;;;;;;4.17;3.70;;;;;;;6.76;52.35;98880.94;1804610;79;21765;-76
2021/01/28 00:24:55;;;;;;;5.92;4.65;;;;;;;6.77;52.29;98877.30;1804367;79;21145;-76
2021/01/28 00:27:22;;;;;;;5.15;3.95;;;;;;;6.77;52.33;98879.45;1804539;79;21059;-77
2021/01/28 00:29:50;;;;;;;5.67;4.53;;;;;;;6.80;52.30;98883.58;1804562;79;21110;-76
2021/01/28 00:32:18;;;;;;;5.40;4.33;;;;;;;6.80;52.24;98892.89;1804520;79;21097;-77
2021/01/28 00:34:46;;;;;;;5.58;4.10;;;;;;;6.78;52.15;98894.91;1803940;79;21258;-77
2021/01/28 00:37:14;;;;;;;4.12;3.70;;;;;;;6.71;52.26;98844.20;1803970;79;21691;-78
2021/01/28 00:39:42;;;;;;;5.35;4.05;;;;;;;6.70;52.35;98827.09;1804331;79;21933;-78
2021/01/28 00:42:11;;;;;;;5.72;4.55;;;;;;;6.67;52.40;98832.23;1804354;79;21153;-77
2021/01/28 00:44:39;;;;;;;6.60;5.10;;;;;;;6.69;52.41;98844.89;1803934;79;21201;-77
2021/01/28 00:47:07;;;;;;;6.35;4.80;;;;;;;6.70;52.45;98839.06;1804281;79;21800;-78
2021/01/28 00:49:35;;;;;;;7.92;4.25;;;;;;;6.70;52.44;98841.22;1804178;79;21173;-77
2021/01/28 00:52:04;;;;;;;6.85;4.15;;;;;;;6.71;52.39;98841.53;1804390;79;21145;-80
2021/01/28 00:54:32;;;;;;;6.83;4.62;;;;;;;6.71;52.41;98850.84;1804366;79;21141;-78
2021/01/28 00:57:00;;;;;;;5.45;4.12;;;;;;;6.82;52.22;98833.69;1804314;79;21138;-77
2021/01/28 00:59:27;;;;;;;5.58;4.40;;;;;;;6.74;52.44;98824.41;1804401;79;21187;-77
2021/01/28 01:01:55;;;;;;;7.62;4.53;;;;;;;6.75;52.46;98826.06;1804043;79;21181;-77
2021/01/28 01:04:23;;;;;;;6.12;4.47;;;;;;;6.73;52.47;98815.60;1804023;79;21153;-75
2021/01/28 01:06:56;;;;;;;4.55;3.70;;;;;;;6.76;52.36;98815.73;1804185;79;21638;-77
2021/01/28 01:09:21;;;;;;;5.53;3.75;;;;;;;6.75;52.35;98810.09;1804582;79;21631;-76
2021/01/28 01:11:53;;;;;;;4.55;3.37;;;;;;;6.74;52.33;98809.77;1804399;79;21719;-78
2021/01/28 01:14:21;;;;;;;4.17;3.62;;;;;;;6.73;52.41;98812.94;1782233;79;21185;-77
2021/01/28 01:16:48;;;;;;;4.30;3.20;;;;;;;6.65;52.54;98820.95;1804302;79;21122;-77
2021/01/28 01:19:21;;;;;;;4.55;3.62;;;;;;;6.60;52.70;98827.30;1803957;79;21556;-78
2021/01/28 01:21:56;;;;;;;4.22;3.50;;;;;;;6.61;52.71;98837.76;1803651;79;21562;-77
2021/01/28 01:24:24;;;;;;;4.33;3.22;;;;;;;6.62;52.67;98827.94;1804695;79;21271;-77
2021/01/28 01:26:51;;;;;;;3.50;3.20;;;;;;;6.65;52.58;98829.44;1804304;79;21692;-77
2021/01/28 01:29:21;;;;;;;4.97;3.17;;;;;;;6.65;52.56;98827.61;1804418;79;21178;-77
2021/01/28 01:32:00;;;;;;;4.05;3.12;;;;;;;6.63;52.67;98814.95;1798077;79;21174;-77
2021/01/28 01:34:30;;;;;;;3.95;3.45;;;;;;;6.69;52.50;98824.93;1803810;79;21268;-77
2021/01/28 01:36:58;;;;;;;4.17;3.35;;;;;;;6.79;52.28;98806.09;1793318;79;21416;-79
2021/01/28 01:39:25;;;;;;;4.72;3.37;;;;;;;6.81;52.15;98802.73;1731137;81;21158;-77
2021/01/28 01:41:53;;;;;;;5.03;2.80;;;;;;;6.75;52.18;98806.10;1795278;79;21648;-78
2021/01/28 01:44:23;;;;;;;3.10;2.72;;;;;;;6.69;52.27;98802.31;1726955;82;21201;-78
2021/01/28 01:47:19;;;;;;;3.20;2.90;;;;;;;6.67;52.35;98807.47;1716986;83;21505;-77
2021/01/28 01:49:48;;;;;;;4.60;3.75;;;;;;;6.70;52.32;98800.48;1731577;82;21373;-78
2021/01/28 01:52:16;;;;;;;5.37;3.52;;;;;;;6.73;52.22;98800.14;1795782;79;21184;-78
2021/01/28 01:54:46;;;;;;;4.60;3.20;;;;;;;6.74;52.18;98784.50;1723762;82;21482;-79
2021/01/28 01:57:34;;;;;;;6.95;3.20;;;;;;;6.79;51.95;98779.48;1733132;81;21149;-78
2021/01/28 02:00:16;;;;;;;3.25;2.70;;;;;;;6.73;52.01;98766.37;1731233;82;21581;-78
2021/01/28 02:03:04;;;;;;;3.15;2.52;;;;;;;6.64;52.13;98771.92;1733355;82;21291;-78
2021/01/28 02:05:54;;;;;;;4.65;3.30;;;;;;;6.60;52.14;98770.92;1711120;81;21227;-78
2021/01/28 02:08:40;;;;;;;3.75;2.90;;;;;;;6.57;52.31;98767.27;1732794;81;21194;-77
2021/01/28 02:11:11;;;;;;;3.37;3.08;;;;;;;6.63;52.21;98772.39;1791814;79;21202;-78
2021/01/28 02:13:49;;;;;;;4.42;3.35;;;;;;;6.65;52.18;98777.56;1792380;79;21198;-77
2021/01/28 02:16:25;;;;;;;3.60;3.10;;;;;;;6.66;52.18;98781.87;1724884;82;22501;-78
2021/01/28 02:18:56;;;;;;;4.97;2.65;;;;;;;6.66;52.16;98788.52;1719734;82;21179;-77
2021/01/28 02:21:31;;;;;;;6.22;3.00;;;;;;;6.67;52.13;98784.85;1729800;82;21564;-77
2021/01/28 02:24:22;;;;;;;3.50;2.62;;;;;;;6.67;52.09;98776.88;1793364;79;21190;-78
2021/01/28 02:26:51;;;;;;;4.72;2.98;;;;;;;6.68;52.08;98777.22;1734795;82;21173;-77
2021/01/28 02:29:23;;;;;;;2.87;2.62;;;;;;;6.67;52.10;98795.50;1768824;79;21459;-77
2021/01/28 02:31:54;;;;;;;4.42;3.22;;;;;;;6.68;52.12;98793.19;1793662;79;21158;-77
2021/01/28 02:34:23;;;;;;;3.65;3.05;;;;;;;6.67;52.11;98799.48;1741690;82;21580;-76
2021/01/28 02:36:56;;;;;;;2.42;2.22;;;;;;;6.63;52.12;98788.36;1781377;79;21631;-78
2021/01/28 02:39:42;;;;;;;4.10;2.62;;;;;;;6.60;52.19;98791.38;1799132;79;21163;-76
2021/01/28 02:42:27;;;;;;;3.03;2.40;;;;;;;6.60;52.18;98794.88;1791906;79;21198;-77
2021/01/28 02:45:05;;;;;;;4.33;2.67;;;;;;;6.63;52.16;98804.83;1720381;82;21137;-77
2021/01/28 02:47:54;;;;;;;3.15;2.85;;;;;;;6.64;52.18;98794.53;1733062;81;21185;-77
2021/01/28 02:50:27;;;;;;;3.33;2.87;;;;;;;6.65;52.15;98798.84;1792797;79;21135;-77
2021/01/28 02:52:59;;;;;;;6.22;4.80;;;;;;;6.64;52.13;98789.22;1727619;82;21185;-77
2021/01/28 02:55:29;;;;;;;5.15;4.00;;;;;;;6.64;52.10;98796.69;1721924;82;22662;-77
2021/01/28 02:57:57;;;;;;;4.58;3.98;;;;;;;6.66;52.16;98799.16;1723879;82;21138;-77
2021/01/28 03:00:33;;;;;;;6.00;4.47;;;;;;;6.64;52.37;98802.52;1695444;82;21086;-77
2021/01/28 03:03:07;;;;;;;4.03;3.35;;;;;;;6.71;52.27;98789.66;1800314;79;21146;-77
2021/01/28 03:05:37;;;;;;;6.60;3.75;;;;;;;6.72;52.30;98790.48;1798088;79;21168;-79
2021/01/28 03:08:05;;;;;;;6.67;4.75;;;;;;;6.75;52.27;98786.14;1796905;79;21369;-82
2021/01/28 03:10:34;;;;;;;6.03;3.85;;;;;;;6.73;52.29;98778.86;1736904;81;21719;-79
2021/01/28 03:13:03;;;;;;;5.05;3.40;;;;;;;6.73;52.34;98785.51;1791563;79;21159;-79
2021/01/28 03:15:33;;;;;;;6.05;4.20;;;;;;;6.78;52.33;98799.11;1729849;82;21173;-78
2021/01/28 03:18:00;;;;;;;5.05;3.65;;;;;;;6.79;52.33;98799.44;1725837;82;21220;-77
2021/01/28 03:20:29;;;;;;;6.90;3.98;;;;;;;6.81;52.38;98812.05;1724464;82;21370;-78
2021/01/28 03:22:57;;;;;;;4.80;3.42;;;;;;;6.86;52.36;98824.36;1725123;82;21180;-77
2021/01/28 03:25:33;;;;;;;6.35;4.78;;;;;;;6.85;52.32;98809.37;1707369;81;21221;-77
2021/01/28 03:28:01;;;;;;;4.28;3.58;;;;;;;6.86;52.37;98804.39;1752158;80;21178;-78
2021/01/28 03:30:36;;;;;;;6.80;4.85;;;;;;;6.85;52.38;98792.89;1732960;81;21197;-79
2021/01/28 03:33:06;;;;;;;9.05;6.45;;;;;;;6.89;52.32;98797.37;1725084;82;22230;-76
2021/01/28 03:35:36;;;;;;;6.85;5.00;;;;;;;6.80;52.44;98794.43;1705932;82;21172;-78
2021/01/28 03:38:06;;;;;;;6.28;4.85;;;;;;;6.76;52.67;98787.80;1719003;82;21184;-77
2021/01/28 03:40:34;;;;;;;5.92;4.50;;;;;;;6.74;52.79;98780.50;1740135;82;22247;-79
2021/01/28 03:43:04;;;;;;;4.67;3.87;;;;;;;6.73;52.82;98776.20;1748816;82;21190;-77
2021/01/28 03:45:32;;;;;;;4.12;3.30;;;;;;;6.72;52.86;98774.52;1748358;82;21423;-78
2021/01/28 03:48:00;;;;;;;4.17;3.08;;;;;;;6.71;52.90;98759.56;1747917;82;21229;-78
2021/01/28 03:50:46;;;;;;;4.67;3.02;;;;;;;6.70;52.92;98749.92;1728356;82;21134;-78
2021/01/28 03:53:16;;;;;;;3.62;2.98;;;;;;;6.67;52.99;98724.98;1723747;82;21106;-79
2021/01/28 03:55:46;;;;;;;3.98;2.92;;;;;;;6.66;53.00;98728.66;1774487;80;21193;-79
2021/01/28 03:58:14;;;;;;;4.00;3.05;;;;;;;6.64;53.01;98711.55;1719387;83;22661;-78
2021/01/28 04:00:44;;;;;;;3.02;2.40;;;;;;;6.61;53.03;98708.73;1774795;80;21176;-80
2021/01/28 04:03:13;;;;;;;3.05;2.50;;;;;;;6.59;53.05;98716.58;1719909;82;21193;-79
2021/01/28 04:05:49;;;;;;;3.12;2.83;;;;;;;6.58;53.12;98764.94;1764927;80;21548;-80
2021/01/28 04:08:35;;;;;;;3.27;2.90;;;;;;;6.57;53.22;98787.23;1720108;83;21186;-78
2021/01/28 04:11:12;;;;;;;4.05;3.33;;;;;;;6.59;53.18;98777.77;1771110;80;21430;-79
2021/01/28 04:13:40;;;;;;;3.25;2.90;;;;;;;6.61;53.13;98777.90;1718499;82;21353;-78
2021/01/28 04:16:09;;;;;;;2.75;2.52;;;;;;;6.60;53.13;98808.17;1795475;79;21392;-79
2021/01/28 04:18:38;;;;;;;3.08;2.40;;;;;;;6.63;53.09;98819.45;1803186;79;21185;-78
2021/01/28 04:21:08;;;;;;;2.90;2.50;;;;;;;6.64;53.06;98791.37;1777676;79;21238;-77
2021/01/28 04:23:36;;;;;;;8.45;4.70;;;;;;;6.65;53.05;98790.36;1719390;83;21368;-80
2021/01/28 04:26:12;;;;;;;9.78;6.10;;;;;;;6.68;53.02;98771.91;1771112;80;21627;-79
2021/01/28 04:28:42;;;;;;;6.95;4.97;;;;;;;6.70;53.00;98773.87;1772124;80;21536;-79
2021/01/28 04:31:28;;;;;;;6.60;3.95;;;;;;;6.69;53.01;98776.21;1771996;80;21622;-77
2021/01/28 04:33:57;;;;;;;5.00;3.62;;;;;;;6.66;53.04;98764.58;1772392;80;21184;-77
2021/01/28 04:36:27;;;;;;;3.17;2.85;;;;;;;6.63;53.10;98753.77;1772812;79;21191;-77
2021/01/28 04:39:13;;;;;;;4.22;3.10;;;;;;;6.61;53.16;98749.14;1753374;80;21180;-77
2021/01/28 04:41:43;;;;;;;4.17;2.70;;;;;;;6.61;53.20;98747.30;1750340;80;21527;-77
2021/01/28 04:44:12;;;;;;;3.62;2.92;;;;;;;6.60;53.27;98740.34;1772265;80;21695;-78
2021/01/28 04:46:51;;;;;;;3.58;2.55;;;;;;;6.63;53.22;98737.81;1719133;83;21221;-79
2021/01/28 04:49:38;;;;;;;3.80;2.90;;;;;;;6.64;53.20;98730.18;1772016;80;21209;-78
2021/01/28 04:52:08;;;;;;;2.40;2.05;;;;;;;6.47;53.57;98733.92;1719722;83;21208;-77
2021/01/28 04:54:35;;;;;;;4.72;2.65;;;;;;;6.44;53.69;98732.43;1726575;80;21202;-77
2021/01/28 04:57:09;;;;;;;3.05;2.37;;;;;;;6.50;53.58;98734.41;1719601;83;21197;-78
2021/01/28 04:59:43;;;;;;;2.42;2.20;;;;;;;6.54;53.47;98739.72;1771415;80;21293;-77
2021/01/28 05:02:16;;;;;;;3.00;2.35;;;;;;;6.54;53.41;98741.52;1726422;80;21378;-78
2021/01/28 05:04:52;;;;;;;6.15;2.80;;;;;;;6.54;53.39;98745.51;1772871;79;21181;-77
2021/01/28 05:07:29;;;;;;;2.97;2.20;;;;;;;6.51;53.41;98745.38;1774530;78;21149;-79
2021/01/28 05:10:15;;;;;;;2.33;2.12;;;;;;;6.55;53.23;98738.70;1757041;79;21504;-79
2021/01/28 05:13:01;;;;;;;2.50;2.30;;;;;;;6.54;53.26;98731.73;1790776;78;21201;-79
2021/01/28 05:15:41;;;;;;;2.47;2.25;;;;;;;6.42;53.47;98729.13;1797561;78;22269;-76
2021/01/28 05:18:34;;;;;;;2.75;2.33;;;;;;;6.41;53.48;98747.42;1779561;79;21611;-77
2021/01/28 05:21:18;;;;;;;2.65;2.37;;;;;;;6.40;53.55;98748.41;1813783;78;21161;-77
2021/01/28 05:23:48;;;;;;;2.60;2.30;;;;;;;6.40;53.60;98743.08;1799788;77;21487;-79
2021/01/28 05:26:38;;;;;;;3.42;2.45;;;;;;;6.41;53.58;98750.08;1771808;80;21682;-79
2021/01/28 05:29:30;;;;;;;2.70;2.40;;;;;;;6.46;53.43;98753.55;1718764;83;22201;-79
2021/01/28 05:31:59;;;;;;;3.52;2.85;;;;;;;6.58;53.08;98765.44;1771762;80;21226;-77
2021/01/28 05:34:33;;;;;;;3.20;2.75;;;;;;;6.57;53.07;98773.92;1719092;83;21220;-76
2021/01/28 05:37:10;;;;;;;3.85;3.15;;;;;;;6.54;53.05;98768.12;1785570;79;21114;-78
2021/01/28 05:40:20;;;;;;;3.40;3.10;;;;;;;6.56;53.05;98776.27;1786634;79;21137;-78
2021/01/28 05:42:51;;;;;;;2.87;2.62;;;;;;;6.57;53.01;98784.56;1776814;78;21209;-77
2021/01/28 05:45:37;;;;;;;3.70;3.25;;;;;;;6.61;53.00;98783.22;1760636;80;21360;-78
2021/01/28 05:48:29;;;;;;;4.25;2.95;;;;;;;6.66;52.92;98781.87;1719394;83;21189;-78
2021/01/28 05:51:21;;;;;;;4.95;4.37;;;;;;;6.68;52.81;98771.91;1789489;78;21165;-77
2021/01/28 05:54:16;;;;;;;4.90;4.25;;;;;;;6.67;52.76;98772.88;1786501;79;21563;-78
2021/01/28 05:57:09;;;;;;;3.40;2.80;;;;;;;6.68;52.66;98763.41;1772554;80;21660;-77
2021/01/28 06:00:06;;;;;;;3.05;2.42;;;;;;;6.75;52.61;98763.02;1832702;77;22726;-79
2021/01/28 06:03:14;;;;;;;2.47;2.25;;;;;;;6.71;52.57;98754.23;1790178;80;21229;-78
2021/01/28 06:06:34;;;;;;;3.25;2.62;;;;;;;6.71;52.55;98744.42;1726469;80;21380;-79
2021/01/28 06:09:28;;;;;;;3.50;2.70;;;;;;;6.70;52.57;98755.25;1774674;78;21192;-78
2021/01/28 06:12:26;;;;;;;3.77;3.35;;;;;;;6.68;52.57;98754.61;1812663;79;21197;-78
2021/01/28 06:15:17;;;;;;;3.67;3.30;;;;;;;6.69;52.49;98749.61;1756690;77;21191;-77
2021/01/28 06:18:33;;;;;;;3.17;2.77;;;;;;;6.71;52.53;98765.70;1800244;77;21191;-78
2021/01/28 06:21:36;;;;;;;4.03;3.25;;;;;;;6.70;52.61;98765.38;1759869;79;21438;-79
2021/01/28 06:24:43;;;;;;;5.33;3.52;;;;;;;6.56;52.88;98747.00;1791784;77;21617;-77
2021/01/28 06:27:47;;;;;;;4.47;3.67;;;;;;;6.64;52.75;98743.98;1792490;77;21105;-78
2021/01/28 06:30:58;;;;;;;3.30;3.00;;;;;;;6.71;52.62;98750.25;1761531;77;21139;-78
2021/01/28 06:34:07;;;;;;;3.80;2.65;;;;;;;6.71;52.49;98749.73;1786955;77;21104;-77
2021/01/28 06:37:07;;;;;;;3.10;2.80;;;;;;;6.72;52.51;98746.58;1778698;77;21370;-79
2021/01/28 06:39:50;;;;;;;6.87;4.17;;;;;;;6.75;52.50;98759.03;1790885;77;21128;-79
2021/01/28 06:42:39;;;;;;;4.05;3.12;;;;;;;6.76;52.49;98746.55;1801658;77;21105;-76
2021/01/28 06:45:31;;;;;;;3.75;2.85;;;;;;;6.78;52.46;98742.73;1799039;79;21124;-77
2021/01/28 06:48:24;;;;;;;4.50;3.20;;;;;;;6.79;52.47;98735.57;1803817;79;21064;-76
2021/01/28 06:51:26;;;;;;;3.50;3.20;;;;;;;6.78;52.52;98746.72;1788258;77;21163;-78
2021/01/28 06:54:04;;;;;;;4.40;3.70;;;;;;;6.83;52.48;98758.16;1776486;78;21139;-77
2021/01/28 06:56:43;;;;;;;4.08;3.05;;;;;;;6.84;52.46;98755.31;1790246;77;21102;-76
2021/01/28 06:59:42;;;;;;;3.40;3.08;;;;;;;6.86;52.45;98753.83;1765386;77;21471;-77
2021/01/28 07:02:37;;;;;;;4.30;3.80;;;;;;;6.88;52.38;98757.13;1798918;77;21100;-77
2021/01/28 07:05:47;;;;;;;3.27;2.98;;;;;;;6.89;52.38;98733.50;1867980;75;22617;-77
2021/01/28 07:08:42;;;;;;;3.35;3.05;;;;;;;6.84;52.40;98745.18;1811765;77;21219;-77
2021/01/28 07:11:36;;;;;;;4.55;3.77;;;;;;;6.82;52.47;98736.55;1787705;79;21339;-78
2021/01/28 07:14:22;;;;;;;5.95;4.00;;;;;;;6.82;52.52;98746.70;1804808;78;21429;-77
2021/01/28 07:17:03;;;;;;;6.78;5.00;;;;;;;6.85;52.50;98746.32;1786115;79;21718;-78
2021/01/28 07:19:37;;;;;;;5.75;4.90;;;;;;;6.85;52.46;98747.66;1821373;76;21173;-77
2021/01/28 07:22:29;;;;;;;4.75;3.83;;;;;;;6.84;52.50;98725.22;1808732;78;21558;-78
2021/01/28 07:25:23;;;;;;;4.40;3.45;;;;;;;6.84;52.48;98734.03;1806021;78;21668;-77
2021/01/28 07:28:02;;;;;;;5.60;4.33;;;;;;;6.84;52.54;98742.02;1803319;79;21163;-77
2021/01/28 07:30:48;;;;;;;6.40;5.28;;;;;;;6.84;52.55;98720.72;1780891;79;21180;-77
2021/01/28 07:34:01;;;;;;;7.40;5.83;;;;;;;6.85;52.50;98725.03;1770917;79;21511;-77
2021/01/28 07:39:04;;;;;;;7.53;5.25;;;;;;;6.88;52.50;98739.83;1823374;76;23188;-78
2021/01/28 07:41:56;;;;;;;6.28;4.92;;;;;;;6.82;52.50;98738.72;1808845;77;21093;-79
2021/01/28 07:44:37;;;;;;;7.60;5.60;;;;;;;6.85;52.48;98741.50;1755310;77;21245;-78
2021/01/28 07:47:32;;;;;;;8.35;6.03;;;;;;;6.86;52.52;98738.69;1797420;77;21962;-78
2021/01/28 07:50:16;;;;;;;7.10;4.95;;;;;;;6.91;52.53;98734.67;1793456;77;21104;-78
2021/01/28 07:52:48;;;;;;;10.15;6.55;;;;;;;6.96;52.48;98728.31;1801054;77;21100;-78
2021/01/28 07:55:44;;;;;;;7.25;6.10;;;;;;;6.97;52.45;98737.44;1800174;78;21106;-78
2021/01/28 07:58:33;;;;;;;7.45;5.92;;;;;;;7.00;52.39;98738.42;1817078;77;21368;-78
2021/01/28 08:01:12;;;;;;;6.12;4.90;;;;;;;7.00;52.29;98729.62;1764874;80;21113;-77
2021/01/28 08:04:00;;;;;;;7.33;4.97;;;;;;;7.00;52.30;98729.11;1805639;77;21172;-77
2021/01/28 08:06:29;;;;;;;4.62;4.15;;;;;;;6.99;52.27;98727.43;1753056;77;21200;-76
2021/01/28 08:09:10;;;;;;;5.47;4.75;;;;;;;7.02;52.22;98739.56;1785008;78;21169;-79
2021/01/28 08:11:39;;;;;;;5.35;4.55;;;;;;;7.01;52.13;98742.73;1810796;78;21097;-76
2021/01/28 08:14:10;;;;;;;8.63;5.22;;;;;;;7.01;52.10;98740.08;1810532;77;21133;-77
2021/01/28 08:16:38;;;;;;;5.42;4.87;;;;;;;7.02;52.08;98736.91;1773977;79;21113;-75
2021/01/28 08:19:13;;;;;;;5.62;4.40;;;;;;;7.00;52.12;98729.11;1787335;77;21103;-78
2021/01/28 08:21:43;;;;;;;6.40;4.70;;;;;;;6.99;52.13;98730.09;1824402;78;21080;-77
2021/01/28 08:24:34;;;;;;;5.50;4.60;;;;;;;7.00;52.16;98747.74;1797641;77;22754;-79
2021/01/28 08:26:51;;;;;;;7.35;6.08;;;;;;;7.02;52.18;98748.38;1802934;77;21116;-78
2021/01/28 08:29:20;;;;;;;5.75;5.20;;;;;;;7.05;52.18;98752.53;1795471;79;21156;-79
2021/01/28 08:31:55;;;;;;;5.83;5.22;;;;;;;7.09;52.17;98756.00;1793458;77;21144;-77
2021/01/28 08:34:26;;;;;;;6.55;4.90;;;;;;;7.11;52.08;98759.80;1808079;78;21219;-78
2021/01/28 08:37:05;;;;;;;5.37;4.83;;;;;;;7.12;52.10;98756.95;1786458;77;22567;-77
2021/01/28 08:39:38;;;;;;;6.08;4.70;;;;;;;7.13;52.08;98757.81;1808418;77;21121;-78
2021/01/28 08:42:12;;;;;;;6.20;4.72;;;;;;;7.10;52.08;98754.98;1808756;77;21112;-78
2021/01/28 08:44:43;;;;;;;6.00;4.42;;;;;;;7.11;52.10;98752.64;1789517;78;21081;-77
2021/01/28 08:47:18;;;;;;;8.15;5.35;;;;;;;7.16;52.10;98749.95;1808698;77;21069;-77
2021/01/28 08:50:07;;;;;;;5.78;5.10;;;;;;;7.18;52.03;98746.62;1789141;78;21448;-78
2021/01/28 08:52:35;;;;;;;5.80;4.75;;;;;;;7.20;52.00;98748.59;1784423;79;21498;-78
2021/01/28 08:55:19;;;;;;;5.78;5.15;;;;;;;7.20;52.01;98739.27;1797974;77;21116;-78
2021/01/28 08:57:47;;;;;;;6.78;5.40;;;;;;;7.19;52.00;98736.29;1807958;79;21234;-78
2021/01/28 09:00:17;;;;;;;5.22;4.22;;;;;;;7.19;52.00;98752.27;1807220;77;21530;-78
2021/01/28 09:02:46;;;;;;;14.53;5.08;;;;;;;7.12;52.13;98738.31;1778950;79;21199;-77
2021/01/28 09:05:27;;;;;;;6.58;4.22;;;;;;;7.13;52.22;98731.19;1799249;77;21135;-79
2021/01/28 09:08:01;;;;;;;5.33;4.50;;;;;;;7.14;52.26;98732.01;1752140;78;22244;-81
2021/01/28 09:13:32;;;;;;;5.17;4.67;;;;;;;7.18;52.22;98725.32;1831718;76;22738;-80
2021/01/28 09:16:12;;;;;;;5.62;4.45;;;;;;;7.14;52.16;98722.69;1827037;77;21105;-80
2021/01/28 09:18:44;;;;;;;5.33;4.15;;;;;;;7.10;52.12;98727.03;1840816;77;21364;-79
2021/01/28 09:24:21;;;;;;;5.90;5.30;;;;;;;7.09;52.22;98708.58;1810932;77;23450;-80
2021/01/28 09:27:25;;;;;;;6.22;5.10;;;;;;;7.04;52.25;98711.78;1734895;81;21193;-81
2021/01/28 09:29:53;;;;;;;6.58;4.85;;;;;;;7.05;52.31;98712.61;1741459;81;21368;-80
2021/01/28 09:32:28;;;;;;;4.83;4.35;;;;;;;7.03;52.29;98700.78;1772640;79;21210;-80
2021/01/28 09:35:14;;;;;;;6.78;4.58;;;;;;;7.04;52.32;98710.92;1744410;80;21189;-80
2021/01/28 09:38:06;;;;;;;4.78;4.25;;;;;;;7.03;52.33;98711.94;1755482;80;21147;-80
2021/01/28 09:40:41;;;;;;;5.72;4.95;;;;;;;7.07;52.31;98713.23;1782858;78;21149;-78
2021/01/28 09:43:20;;;;;;;5.90;5.20;;;;;;;7.10;52.20;98711.05;1769766;80;21365;-78
2021/01/28 09:46:21;;;;;;;7.15;4.90;;;;;;;7.11;52.18;98703.89;1771648;78;21216;-78
2021/01/28 09:48:52;;;;;;;6.83;5.28;;;;;;;7.14;52.16;98689.41;1764009;78;21113;-79
2021/01/28 09:51:33;;;;;;;5.35;4.47;;;;;;;7.15;52.14;98672.42;1749900;80;21529;-79
2021/01/28 09:54:15;;;;;;;7.10;4.83;;;;;;;7.15;52.09;98653.78;1754775;80;21083;-78
2021/01/28 09:56:44;;;;;;;7.00;5.10;;;;;;;7.15;52.08;98655.11;1743148;80;21267;-78
2021/01/28 09:59:15;;;;;;;6.15;4.42;;;;;;;7.15;52.08;98641.30;1775878;78;21158;-79
2021/01/28 10:01:43;;;;;;;4.72;3.87;;;;;;;7.18;52.10;98634.28;1762194;80;21171;-79
2021/01/28 10:04:13;;;;;;;5.72;4.60;;;;;;;7.21;52.05;98626.42;1737108;81;21145;-80
2021/01/28 10:06:41;;;;;;;6.33;4.92;;;;;;;7.21;52.00;98645.06;1778751;79;21094;-77
2021/01/28 10:09:09;;;;;;;5.22;4.70;;;;;;;7.23;51.95;98642.55;1771640;79;21392;-78
2021/01/28 10:11:50;;;;;;;7.08;5.55;;;;;;;7.23;51.92;98645.22;1758337;80;21153;-78
2021/01/28 10:14:18;;;;;;;9.03;5.30;;;;;;;7.23;51.86;98657.70;1745672;80;21158;-79
2021/01/28 10:16:46;;;;;;;6.08;4.97;;;;;;;7.23;51.81;98660.37;1776656;80;21103;-80
2021/01/28 10:19:15;;;;;;;6.22;4.50;;;;;;;7.22;51.75;98649.38;1744889;80;21611;-81
2021/01/28 10:21:43;;;;;;;7.95;6.28;;;;;;;7.24;51.73;98651.36;1770446;78;22643;-79
2021/01/28 10:24:16;;;;;;;10.28;6.95;;;;;;;7.22;51.81;98653.36;1770778;79;21184;-77
2021/01/28 10:26:50;;;;;;;9.60;6.83;;;;;;;7.24;51.75;98654.03;1768636;78;21172;-79
2021/01/28 10:29:18;;;;;;;6.90;5.70;;;;;;;7.21;51.78;98655.20;1768621;80;21216;-80
2021/01/28 10:31:46;;;;;;;8.98;5.65;;;;;;;7.23;51.71;98659.03;1777060;80;21184;-79
2021/01/28 10:34:21;;;;;;;5.30;4.22;;;;;;;7.24;51.72;98647.38;1770001;78;22286;-80
2021/01/28 10:36:52;;;;;;;6.58;5.03;;;;;;;7.25;51.73;98655.67;1726046;80;21269;-80
2021/01/28 10:39:20;;;;;;;6.03;4.85;;;;;;;7.28;51.64;98648.67;1763352;80;21192;-80
2021/01/28 10:41:52;;;;;;;7.03;5.03;;;;;;;7.30;51.62;98650.63;1775143;79;21196;-83
2021/01/28 10:44:21;;;;;;;6.30;5.25;;;;;;;7.33;51.53;98648.44;1761951;80;21205;-80
2021/01/28 10:46:50;;;;;;;6.35;5.62;;;;;;;7.34;51.51;98654.59;1775155;78;21220;-81
2021/01/28 10:49:18;;;;;;;7.10;5.00;;;;;;;7.35;51.50;98669.55;1772389;78;21386;-81
2021/01/28 10:51:48;;;;;;;8.95;5.22;;;;;;;7.39;51.44;98660.20;1772860;79;21182;-79
2021/01/28 10:54:16;;;;;;;6.33;5.12;;;;;;;7.38;51.37;98652.71;1772512;79;21216;-81
2021/01/28 10:56:44;;;;;;;4.87;4.20;;;;;;;7.37;51.31;98660.89;1759657;80;21176;-80
2021/01/28 10:59:12;;;;;;;7.12;5.85;;;;;;;7.37;51.31;98668.38;1773458;80;21396;-79
2021/01/28 11:01:41;;;;;;;8.33;6.33;;;;;;;7.36;51.35;98658.73;1746487;81;21222;-79
2021/01/28 11:04:09;;;;;;;7.25;5.72;;;;;;;7.38;51.30;98649.22;1769584;80;21205;-80
2021/01/28 11:06:38;;;;;;;6.33;5.65;;;;;;;7.38;51.28;98647.38;1768324;78;21533;-80
2021/01/28 11:09:07;;;;;;;6.85;5.15;;;;;;;7.41;51.25;98666.69;1744926;81;21442;-80
2021/01/28 11:11:36;;;;;;;6.50;5.20;;;;;;;7.41;51.18;98670.69;1741389;80;21202;-80
2021/01/28 11:14:06;;;;;;;7.03;5.85;;;;;;;7.38;51.16;98673.20;1761212;80;21662;-81
2021/01/28 11:16:36;;;;;;;9.98;6.10;;;;;;;7.37;51.18;98675.55;1737511;81;21184;-81
2021/01/28 11:19:07;;;;;;;6.78;5.30;;;;;;;7.34;51.17;98666.57;1741980;81;21106;-80
2021/01/28 11:21:36;;;;;;;11.57;6.58;;;;;;;7.32;51.24;98658.77;1749207;80;21193;-81
2021/01/28 11:24:04;;;;;;;9.65;6.58;;;;;;;7.33;51.24;98652.44;1771284;80;21474;-80
2021/01/28 11:26:32;;;;;;;9.15;7.00;;;;;;;7.35;51.22;98649.58;1746270;81;21213;-81
2021/01/28 11:29:04;;;;;;;8.20;7.22;;;;;;;7.32;51.24;98661.44;1769217;80;21254;-80
2021/01/28 11:31:31;;;;;;;8.85;6.97;;;;;;;7.41;51.10;98662.70;1727675;82;21572;-79
2021/01/28 11:33:59;;;;;;;7.65;6.03;;;;;;;7.34;51.15;98659.91;1758586;80;21200;-78
2021/01/28 11:36:27;;;;;;;8.15;6.35;;;;;;;7.28;51.29;98659.32;1781717;78;21396;-78
2021/01/28 11:38:55;;;;;;;6.85;5.60;;;;;;;7.26;51.38;98650.66;1742557;80;21188;-80
2021/01/28 11:41:25;;;;;;;7.22;5.03;;;;;;;7.29;51.42;98645.81;1766019;79;21178;-79
2021/01/28 11:43:53;;;;;;;6.87;5.47;;;;;;;7.33;51.45;98645.77;1779791;80;21197;-77
2021/01/28 11:46:21;;;;;;;6.78;5.95;;;;;;;7.34;51.45;98654.59;1753883;80;21196;-78
2021/01/28 11:48:49;;;;;;;6.55;5.15;;;;;;;7.32;51.51;98658.77;1728787;82;22627;-82
2021/01/28 11:51:17;;;;;;;7.85;5.90;;;;;;;7.36;51.59;98661.91;1735201;81;21065;-81
2021/01/28 11:53:47;;;;;;;8.63;6.15;;;;;;;7.36;51.60;98659.25;1742144;80;21206;-79
2021/01/28 11:56:15;;;;;;;9.18;6.17;;;;;;;7.34;51.64;98657.25;1770595;78;21368;-81
2021/01/28 11:58:43;;;;;;;6.80;5.58;;;;;;;7.28;51.83;98673.45;1779029;80;21164;-80
2021/01/28 12:01:11;;;;;;;7.90;5.60;;;;;;;7.28;51.96;98672.63;1736154;80;21319;-80
2021/01/28 12:03:39;;;;;;;6.97;5.95;;;;;;;7.29;52.01;98675.61;1772210;80;21231;-78
2021/01/28 12:06:10;;;;;;;9.53;7.22;;;;;;;7.29;52.09;98684.94;1774308;80;21212;-78
2021/01/28 12:08:38;;;;;;;8.23;6.45;;;;;;;7.32;52.11;98689.91;1766849;78;21191;-79
2021/01/28 12:11:06;;;;;;;8.48;6.87;;;;;;;7.33;52.09;98682.23;1740635;80;21421;-80
2021/01/28 12:13:35;;;;;;;9.50;6.80;;;;;;;7.31;52.10;98685.56;1765721;79;21267;-81
2021/01/28 12:16:03;;;;;;;10.03;6.45;;;;;;;7.31;52.13;98681.58;1777187;80;21632;-81
2021/01/28 12:18:31;;;;;;;10.38;6.35;;;;;;;7.28;52.18;98677.45;1777454;79;21189;-79
2021/01/28 12:21:00;;;;;;;8.88;7.75;;;;;;;7.28;52.25;98661.47;1770779;79;21211;-79
2021/01/28 12:23:28;;;;;;;7.75;6.90;;;;;;;7.25;52.45;98651.68;1776136;79;21215;-79
2021/01/28 12:25:58;;;;;;;7.78;6.92;;;;;;;7.25;52.51;98651.68;1771719;80;22274;-79
2021/01/28 12:28:26;;;;;;;9.30;7.20;;;;;;;7.28;52.52;98650.00;1738753;80;21226;-79
2021/01/28 12:30:54;;;;;;;8.75;6.33;;;;;;;7.30;52.50;98647.97;1747241;80;21225;-78